sensor_id;sensor_type;location;lat;lon;timestamp;temperature;humidity
582;DHT22;277;50.074;8.436;2023-07-29T00:01:14;19.00;99.90
582;DHT22;277;50.074;8.436;2023-07-29T00:03:42;19.10;99.90
582;DHT22;277;50.074;8.436;2023-07-29T00:06:10;19.20;99.90
582;DHT22;277;50.074;8.436;2023-07-29T00:08:38;19.20;99.90
582;DHT22;277;50.074;8.436;2023-07-29T00:11:05;19.20;99.90
582;DHT22;277;50.074;8.436;2023-07-29T00:13:35;19.20;99.90
582;DHT22;277;50.074;8.436;2023-07-29T00:16:02;19.30;99.90
582;DHT22;277;50.074;8.436;2023-07-29T00:18:31;19.30;99.90
582;DHT22;277;50.074;8.436;2023-07-29T00:20:59;19.30;99.90
582;DHT22;277;50.074;8.436;2023-07-29T00:23:27;19.30;99.90
582;DHT22;277;50.074;8.436;2023-07-29T00:25:54;19.30;99.90
582;DHT22;277;50.074;8.436;2023-07-29T00:28:22;19.40;99.90
582;DHT22;277;50.074;8.436;2023-07-29T00:30:51;19.30;99.90
582;DHT22;277;50.074;8.436;2023-07-29T00:33:19;19.30;99.90
582;DHT22;277;50.074;8.436;2023-07-29T00:35:47;19.20;99.90
582;DHT22;277;50.074;8.436;2023-07-29T00:38:15;19.10;99.90
582;DHT22;277;50.074;8.436;2023-07-29T00:40:43;19.20;99.90
582;DHT22;277;50.074;8.436;2023-07-29T00:43:10;19.30;99.90
582;DHT22;277;50.074;8.436;2023-07-29T00:45:38;19.20;99.90
582;DHT22;277;50.074;8.436;2023-07-29T00:48:07;19.20;99.90
582;DHT22;277;50.074;8.436;2023-07-29T00:50:35;19.20;99.90
582;DHT22;277;50.074;8.436;2023-07-29T00:53:03;19.30;99.90
582;DHT22;277;50.074;8.436;2023-07-29T00:55:31;19.30;99.90
582;DHT22;277;50.074;8.436;2023-07-29T00:57:59;19.30;99.90
582;DHT22;277;50.074;8.436;2023-07-29T01:00:27;19.30;99.90
582;DHT22;277;50.074;8.436;2023-07-29T01:02:55;19.30;99.90
582;DHT22;277;50.074;8.436;2023-07-29T01:05:24;19.20;99.90
582;DHT22;277;50.074;8.436;2023-07-29T01:07:56;19.30;99.90
582;DHT22;277;50.074;8.436;2023-07-29T01:10:30;19.40;99.90
582;DHT22;277;50.074;8.436;2023-07-29T01:13:01;19.40;99.90
582;DHT22;277;50.074;8.436;2023-07-29T01:15:33;19.40;99.90
582;DHT22;277;50.074;8.436;2023-07-29T01:18:02;19.30;99.90
582;DHT22;277;50.074;8.436;2023-07-29T01:20:34;19.40;99.90
582;DHT22;277;50.074;8.436;2023-07-29T01:23:03;19.30;99.90
582;DHT22;277;50.074;8.436;2023-07-29T01:25:32;19.30;99.90
582;DHT22;277;50.074;8.436;2023-07-29T01:28:00;19.30;99.90
582;DHT22;277;50.074;8.436;2023-07-29T01:30:29;19.20;99.90
582;DHT22;277;50.074;8.436;2023-07-29T01:32:59;19.10;99.90
582;DHT22;277;50.074;8.436;2023-07-29T01:35:28;19.10;99.90
582;DHT22;277;50.074;8.436;2023-07-29T01:37:59;19.10;99.90
582;DHT22;277;50.074;8.436;2023-07-29T01:40:29;19.20;99.90
582;DHT22;277;50.074;8.436;2023-07-29T01:42:58;19.20;99.90
582;DHT22;277;50.074;8.436;2023-07-29T01:45:26;19.20;99.90
582;DHT22;277;50.074;8.436;2023-07-29T01:47:54;19.10;99.90
582;DHT22;277;50.074;8.436;2023-07-29T01:50:21;19.00;99.90
582;DHT22;277;50.074;8.436;2023-07-29T01:52:49;19.10;99.90
582;DHT22;277;50.074;8.436;2023-07-29T01:55:17;19.00;99.90
582;DHT22;277;50.074;8.436;2023-07-29T01:57:45;19.00;99.90
582;DHT22;277;50.074;8.436;2023-07-29T02:00:14;19.00;99.90
582;DHT22;277;50.074;8.436;2023-07-29T02:02:42;19.00;99.90
582;DHT22;277;50.074;8.436;2023-07-29T02:05:10;19.00;99.90
582;DHT22;277;50.074;8.436;2023-07-29T02:07:37;19.00;99.90
582;DHT22;277;50.074;8.436;2023-07-29T02:10:06;19.00;99.90
582;DHT22;277;50.074;8.436;2023-07-29T02:12:34;19.00;99.90
582;DHT22;277;50.074;8.436;2023-07-29T02:15:02;19.00;99.90
582;DHT22;277;50.074;8.436;2023-07-29T02:17:31;19.00;99.90
582;DHT22;277;50.074;8.436;2023-07-29T02:19:59;19.10;99.90
582;DHT22;277;50.074;8.436;2023-07-29T02:22:27;19.10;99.90
582;DHT22;277;50.074;8.436;2023-07-29T02:24:54;19.20;99.90
582;DHT22;277;50.074;8.436;2023-07-29T02:27:22;19.30;99.90
582;DHT22;277;50.074;8.436;2023-07-29T02:29:51;19.30;99.90
582;DHT22;277;50.074;8.436;2023-07-29T02:32:19;19.30;99.90
582;DHT22;277;50.074;8.436;2023-07-29T02:34:48;19.40;99.90
582;DHT22;277;50.074;8.436;2023-07-29T02:37:16;19.40;99.90
582;DHT22;277;50.074;8.436;2023-07-29T02:39:44;19.50;99.90
582;DHT22;277;50.074;8.436;2023-07-29T02:42:12;19.50;99.90
582;DHT22;277;50.074;8.436;2023-07-29T02:44:40;19.50;99.90
582;DHT22;277;50.074;8.436;2023-07-29T02:47:08;19.50;99.90
582;DHT22;277;50.074;8.436;2023-07-29T02:49:35;19.50;99.90
582;DHT22;277;50.074;8.436;2023-07-29T02:52:05;19.50;99.90
582;DHT22;277;50.074;8.436;2023-07-29T02:54:32;19.40;99.90
582;DHT22;277;50.074;8.436;2023-07-29T02:57:00;19.40;99.90
582;DHT22;277;50.074;8.436;2023-07-29T02:59:28;19.40;99.90
582;DHT22;277;50.074;8.436;2023-07-29T03:01:56;19.50;99.90
582;DHT22;277;50.074;8.436;2023-07-29T03:04:24;19.50;99.90
582;DHT22;277;50.074;8.436;2023-07-29T03:06:51;19.40;99.90
582;DHT22;277;50.074;8.436;2023-07-29T03:09:21;19.40;99.90
582;DHT22;277;50.074;8.436;2023-07-29T03:11:48;19.40;99.90
582;DHT22;277;50.074;8.436;2023-07-29T03:14:17;19.40;99.90
582;DHT22;277;50.074;8.436;2023-07-29T03:16:45;19.40;99.90
582;DHT22;277;50.074;8.436;2023-07-29T03:19:14;19.30;99.90
582;DHT22;277;50.074;8.436;2023-07-29T03:21:42;19.20;99.90
582;DHT22;277;50.074;8.436;2023-07-29T03:24:10;19.20;99.90
582;DHT22;277;50.074;8.436;2023-07-29T03:26:39;19.30;99.90
582;DHT22;277;50.074;8.436;2023-07-29T03:29:11;19.30;99.90
582;DHT22;277;50.074;8.436;2023-07-29T03:31:39;19.30;99.90
582;DHT22;277;50.074;8.436;2023-07-29T03:34:06;19.20;99.90
582;DHT22;277;50.074;8.436;2023-07-29T03:36:34;19.10;99.90
582;DHT22;277;50.074;8.436;2023-07-29T03:39:02;19.10;99.90
582;DHT22;277;50.074;8.436;2023-07-29T03:41:31;19.10;99.90
582;DHT22;277;50.074;8.436;2023-07-29T03:44:00;19.10;99.90
582;DHT22;277;50.074;8.436;2023-07-29T03:46:27;19.10;99.90
582;DHT22;277;50.074;8.436;2023-07-29T03:48:55;19.10;99.90
582;DHT22;277;50.074;8.436;2023-07-29T03:51:23;19.10;99.90
582;DHT22;277;50.074;8.436;2023-07-29T03:53:52;19.20;99.90
582;DHT22;277;50.074;8.436;2023-07-29T03:56:19;19.20;99.90
582;DHT22;277;50.074;8.436;2023-07-29T03:58:47;19.20;99.90
582;DHT22;277;50.074;8.436;2023-07-29T04:01:17;19.20;99.90
582;DHT22;277;50.074;8.436;2023-07-29T04:03:45;19.20;99.90
582;DHT22;277;50.074;8.436;2023-07-29T04:06:13;19.20;99.90
582;DHT22;277;50.074;8.436;2023-07-29T04:08:41;19.20;99.90
582;DHT22;277;50.074;8.436;2023-07-29T04:11:09;19.10;99.90
582;DHT22;277;50.074;8.436;2023-07-29T04:13:37;19.10;99.90
582;DHT22;277;50.074;8.436;2023-07-29T04:16:05;19.10;99.90
582;DHT22;277;50.074;8.436;2023-07-29T04:18:34;19.20;99.90
582;DHT22;277;50.074;8.436;2023-07-29T04:21:01;19.20;99.90
582;DHT22;277;50.074;8.436;2023-07-29T04:23:29;19.20;99.90
582;DHT22;277;50.074;8.436;2023-07-29T04:25:57;19.20;99.90
582;DHT22;277;50.074;8.436;2023-07-29T04:28:25;19.20;99.90
582;DHT22;277;50.074;8.436;2023-07-29T04:30:53;19.20;99.90
582;DHT22;277;50.074;8.436;2023-07-29T04:33:21;19.20;99.90
582;DHT22;277;50.074;8.436;2023-07-29T04:35:50;19.20;99.90
582;DHT22;277;50.074;8.436;2023-07-29T04:38:18;19.20;99.90
582;DHT22;277;50.074;8.436;2023-07-29T04:40:48;19.20;99.90
582;DHT22;277;50.074;8.436;2023-07-29T04:43:16;19.20;99.90
582;DHT22;277;50.074;8.436;2023-07-29T04:45:44;19.20;99.90
582;DHT22;277;50.074;8.436;2023-07-29T04:48:12;19.20;99.90
582;DHT22;277;50.074;8.436;2023-07-29T04:50:40;19.10;99.90
582;DHT22;277;50.074;8.436;2023-07-29T04:53:09;19.00;99.90
582;DHT22;277;50.074;8.436;2023-07-29T04:55:37;19.10;99.90
582;DHT22;277;50.074;8.436;2023-07-29T04:58:04;19.10;99.90
582;DHT22;277;50.074;8.436;2023-07-29T05:00:32;19.10;99.90
582;DHT22;277;50.074;8.436;2023-07-29T05:03:01;19.10;99.90
582;DHT22;277;50.074;8.436;2023-07-29T05:05:29;19.10;99.90
582;DHT22;277;50.074;8.436;2023-07-29T05:07:56;19.00;99.90
582;DHT22;277;50.074;8.436;2023-07-29T05:10:25;19.00;99.90
582;DHT22;277;50.074;8.436;2023-07-29T05:12:53;19.00;99.90
582;DHT22;277;50.074;8.436;2023-07-29T05:15:21;19.00;99.90
582;DHT22;277;50.074;8.436;2023-07-29T05:17:49;19.00;99.90
582;DHT22;277;50.074;8.436;2023-07-29T05:20:17;18.90;99.90
582;DHT22;277;50.074;8.436;2023-07-29T05:22:44;18.90;99.90
582;DHT22;277;50.074;8.436;2023-07-29T05:25:12;18.90;99.90
582;DHT22;277;50.074;8.436;2023-07-29T05:27:41;19.00;99.90
582;DHT22;277;50.074;8.436;2023-07-29T05:30:09;19.00;99.90
582;DHT22;277;50.074;8.436;2023-07-29T05:32:37;19.00;99.90
582;DHT22;277;50.074;8.436;2023-07-29T05:35:05;19.00;99.90
582;DHT22;277;50.074;8.436;2023-07-29T05:37:33;18.90;99.90
582;DHT22;277;50.074;8.436;2023-07-29T05:40:01;19.00;99.90
582;DHT22;277;50.074;8.436;2023-07-29T05:42:29;19.00;99.90
582;DHT22;277;50.074;8.436;2023-07-29T05:44:58;19.00;99.90
582;DHT22;277;50.074;8.436;2023-07-29T05:47:26;19.10;99.90
582;DHT22;277;50.074;8.436;2023-07-29T05:49:54;19.20;99.90
582;DHT22;277;50.074;8.436;2023-07-29T05:52:22;19.30;99.90
582;DHT22;277;50.074;8.436;2023-07-29T05:54:50;19.30;99.90
582;DHT22;277;50.074;8.436;2023-07-29T05:57:17;19.40;99.90
582;DHT22;277;50.074;8.436;2023-07-29T05:59:51;19.40;99.90
582;DHT22;277;50.074;8.436;2023-07-29T06:02:20;19.40;99.90
582;DHT22;277;50.074;8.436;2023-07-29T06:04:48;19.40;99.90
582;DHT22;277;50.074;8.436;2023-07-29T06:07:15;19.40;99.90
582;DHT22;277;50.074;8.436;2023-07-29T06:09:43;19.40;99.90
582;DHT22;277;50.074;8.436;2023-07-29T06:12:11;19.40;99.90
582;DHT22;277;50.074;8.436;2023-07-29T06:14:39;19.40;99.90
582;DHT22;277;50.074;8.436;2023-07-29T06:17:07;19.30;99.90
582;DHT22;277;50.074;8.436;2023-07-29T06:19:39;19.20;99.90
582;DHT22;277;50.074;8.436;2023-07-29T06:22:07;19.20;99.90
582;DHT22;277;50.074;8.436;2023-07-29T06:24:35;19.30;99.90
582;DHT22;277;50.074;8.436;2023-07-29T06:27:02;19.30;99.90
582;DHT22;277;50.074;8.436;2023-07-29T06:29:30;19.20;99.90
582;DHT22;277;50.074;8.436;2023-07-29T06:31:58;19.20;99.90
582;DHT22;277;50.074;8.436;2023-07-29T06:34:26;19.10;99.90
582;DHT22;277;50.074;8.436;2023-07-29T06:36:55;19.20;99.90
582;DHT22;277;50.074;8.436;2023-07-29T06:39:23;19.10;99.90
582;DHT22;277;50.074;8.436;2023-07-29T06:41:51;19.20;99.90
582;DHT22;277;50.074;8.436;2023-07-29T06:44:19;19.20;99.90
582;DHT22;277;50.074;8.436;2023-07-29T06:46:46;19.20;99.90
582;DHT22;277;50.074;8.436;2023-07-29T06:49:14;19.20;99.90
582;DHT22;277;50.074;8.436;2023-07-29T06:51:42;19.20;99.90
582;DHT22;277;50.074;8.436;2023-07-29T06:54:11;19.10;99.90
582;DHT22;277;50.074;8.436;2023-07-29T06:56:40;19.10;99.90
582;DHT22;277;50.074;8.436;2023-07-29T06:59:08;19.00;99.90
582;DHT22;277;50.074;8.436;2023-07-29T07:01:35;19.00;99.90
582;DHT22;277;50.074;8.436;2023-07-29T07:04:03;18.90;99.90
582;DHT22;277;50.074;8.436;2023-07-29T07:06:31;18.90;99.90
582;DHT22;277;50.074;8.436;2023-07-29T07:08:59;18.90;99.90
582;DHT22;277;50.074;8.436;2023-07-29T07:11:28;18.90;99.90
582;DHT22;277;50.074;8.436;2023-07-29T07:13:56;18.90;99.90
582;DHT22;277;50.074;8.436;2023-07-29T07:16:24;18.90;99.90
582;DHT22;277;50.074;8.436;2023-07-29T07:18:52;18.90;99.90
582;DHT22;277;50.074;8.436;2023-07-29T07:21:19;19.00;99.90
582;DHT22;277;50.074;8.436;2023-07-29T07:23:48;18.90;99.90
582;DHT22;277;50.074;8.436;2023-07-29T07:26:16;18.90;99.90
582;DHT22;277;50.074;8.436;2023-07-29T07:28:45;19.00;99.90
582;DHT22;277;50.074;8.436;2023-07-29T07:31:13;19.10;99.90
582;DHT22;277;50.074;8.436;2023-07-29T07:33:46;19.10;99.90
582;DHT22;277;50.074;8.436;2023-07-29T07:36:14;19.10;99.90
582;DHT22;277;50.074;8.436;2023-07-29T07:38:42;19.10;99.90
582;DHT22;277;50.074;8.436;2023-07-29T07:41:10;19.20;99.90
582;DHT22;277;50.074;8.436;2023-07-29T07:43:37;19.20;99.90
582;DHT22;277;50.074;8.436;2023-07-29T07:46:07;19.20;99.90
582;DHT22;277;50.074;8.436;2023-07-29T07:48:35;19.20;99.90
582;DHT22;277;50.074;8.436;2023-07-29T07:51:09;19.20;99.90
582;DHT22;277;50.074;8.436;2023-07-29T07:53:37;19.20;99.90
582;DHT22;277;50.074;8.436;2023-07-29T07:56:04;19.20;99.90
582;DHT22;277;50.074;8.436;2023-07-29T07:58:33;19.20;99.90
582;DHT22;277;50.074;8.436;2023-07-29T08:01:02;19.10;99.90
582;DHT22;277;50.074;8.436;2023-07-29T08:03:31;19.10;99.90
582;DHT22;277;50.074;8.436;2023-07-29T08:05:59;19.10;99.90
582;DHT22;277;50.074;8.436;2023-07-29T08:08:27;19.20;99.90
582;DHT22;277;50.074;8.436;2023-07-29T08:10:56;19.30;99.90
582;DHT22;277;50.074;8.436;2023-07-29T08:13:24;19.40;99.90
582;DHT22;277;50.074;8.436;2023-07-29T08:15:52;19.50;99.90
582;DHT22;277;50.074;8.436;2023-07-29T08:18:20;19.60;99.90
582;DHT22;277;50.074;8.436;2023-07-29T08:20:52;19.80;99.90
582;DHT22;277;50.074;8.436;2023-07-29T08:23:21;19.90;99.90
582;DHT22;277;50.074;8.436;2023-07-29T08:25:51;20.10;99.90
582;DHT22;277;50.074;8.436;2023-07-29T08:28:18;20.30;99.90
582;DHT22;277;50.074;8.436;2023-07-29T08:30:47;20.40;99.90
582;DHT22;277;50.074;8.436;2023-07-29T08:33:15;20.60;99.90
582;DHT22;277;50.074;8.436;2023-07-29T08:35:43;20.70;99.90
582;DHT22;277;50.074;8.436;2023-07-29T08:38:12;20.90;99.90
582;DHT22;277;50.074;8.436;2023-07-29T08:40:42;21.20;99.90
582;DHT22;277;50.074;8.436;2023-07-29T08:43:10;21.40;99.90
582;DHT22;277;50.074;8.436;2023-07-29T08:45:38;21.50;99.90
582;DHT22;277;50.074;8.436;2023-07-29T08:48:08;21.60;99.90
582;DHT22;277;50.074;8.436;2023-07-29T08:50:36;21.80;99.90
582;DHT22;277;50.074;8.436;2023-07-29T08:53:05;22.00;99.90
582;DHT22;277;50.074;8.436;2023-07-29T08:55:34;22.40;99.90
582;DHT22;277;50.074;8.436;2023-07-29T08:58:02;22.80;99.90
582;DHT22;277;50.074;8.436;2023-07-29T09:00:32;23.00;99.90
582;DHT22;277;50.074;8.436;2023-07-29T09:02:59;23.10;99.90
582;DHT22;277;50.074;8.436;2023-07-29T09:05:33;23.30;99.90
582;DHT22;277;50.074;8.436;2023-07-29T09:08:00;23.20;99.90
582;DHT22;277;50.074;8.436;2023-07-29T09:10:29;23.00;99.90
582;DHT22;277;50.074;8.436;2023-07-29T09:12:58;23.10;99.90
582;DHT22;277;50.074;8.436;2023-07-29T09:15:29;22.90;99.90
582;DHT22;277;50.074;8.436;2023-07-29T09:17:57;22.80;99.90
582;DHT22;277;50.074;8.436;2023-07-29T09:20:28;22.70;99.90
582;DHT22;277;50.074;8.436;2023-07-29T09:22:57;22.60;99.90
582;DHT22;277;50.074;8.436;2023-07-29T09:25:27;22.70;99.90
582;DHT22;277;50.074;8.436;2023-07-29T09:28:00;22.60;99.90
582;DHT22;277;50.074;8.436;2023-07-29T09:30:28;22.60;99.90
582;DHT22;277;50.074;8.436;2023-07-29T09:32:56;22.80;99.90
582;DHT22;277;50.074;8.436;2023-07-29T09:35:24;23.00;99.90
582;DHT22;277;50.074;8.436;2023-07-29T09:37:53;23.40;99.90
582;DHT22;277;50.074;8.436;2023-07-29T09:40:20;23.70;99.90
582;DHT22;277;50.074;8.436;2023-07-29T09:42:48;23.70;99.90
582;DHT22;277;50.074;8.436;2023-07-29T09:45:22;23.60;99.90
582;DHT22;277;50.074;8.436;2023-07-29T09:47:50;23.70;99.90
582;DHT22;277;50.074;8.436;2023-07-29T09:50:18;23.60;99.90
582;DHT22;277;50.074;8.436;2023-07-29T09:52:46;23.50;99.90
582;DHT22;277;50.074;8.436;2023-07-29T09:55:16;23.40;99.90
582;DHT22;277;50.074;8.436;2023-07-29T09:57:44;23.40;99.90
582;DHT22;277;50.074;8.436;2023-07-29T10:00:13;23.40;99.90
582;DHT22;277;50.074;8.436;2023-07-29T10:02:43;23.40;99.90
582;DHT22;277;50.074;8.436;2023-07-29T10:05:11;23.40;99.90
582;DHT22;277;50.074;8.436;2023-07-29T10:07:39;23.60;99.90
582;DHT22;277;50.074;8.436;2023-07-29T10:10:07;23.80;99.90
582;DHT22;277;50.074;8.436;2023-07-29T10:12:35;24.10;99.90
582;DHT22;277;50.074;8.436;2023-07-29T10:15:03;24.30;99.90
582;DHT22;277;50.074;8.436;2023-07-29T10:17:33;24.40;99.90
582;DHT22;277;50.074;8.436;2023-07-29T10:20:03;24.40;99.90
582;DHT22;277;50.074;8.436;2023-07-29T10:22:33;24.40;99.90
582;DHT22;277;50.074;8.436;2023-07-29T10:25:02;24.30;99.90
582;DHT22;277;50.074;8.436;2023-07-29T10:27:32;24.20;99.90
582;DHT22;277;50.074;8.436;2023-07-29T10:30:02;24.00;99.90
582;DHT22;277;50.074;8.436;2023-07-29T10:32:30;23.80;99.90
582;DHT22;277;50.074;8.436;2023-07-29T10:34:58;23.80;99.90
582;DHT22;277;50.074;8.436;2023-07-29T10:37:28;23.70;99.90
582;DHT22;277;50.074;8.436;2023-07-29T10:39:55;23.80;99.90
582;DHT22;277;50.074;8.436;2023-07-29T10:42:23;23.80;99.90
582;DHT22;277;50.074;8.436;2023-07-29T10:44:51;23.80;99.90
582;DHT22;277;50.074;8.436;2023-07-29T10:47:20;23.80;99.90
582;DHT22;277;50.074;8.436;2023-07-29T10:49:50;23.70;99.90
582;DHT22;277;50.074;8.436;2023-07-29T10:52:28;23.60;99.90
582;DHT22;277;50.074;8.436;2023-07-29T10:54:57;23.60;99.90
582;DHT22;277;50.074;8.436;2023-07-29T10:57:30;23.30;99.90
582;DHT22;277;50.074;8.436;2023-07-29T10:59:58;23.00;99.90
582;DHT22;277;50.074;8.436;2023-07-29T11:02:29;22.90;99.90
582;DHT22;277;50.074;8.436;2023-07-29T11:04:58;22.90;99.90
582;DHT22;277;50.074;8.436;2023-07-29T11:07:26;22.90;99.90
582;DHT22;277;50.074;8.436;2023-07-29T11:09:56;22.90;99.90
582;DHT22;277;50.074;8.436;2023-07-29T11:12:34;23.00;99.90
582;DHT22;277;50.074;8.436;2023-07-29T11:15:03;23.10;99.90
582;DHT22;277;50.074;8.436;2023-07-29T11:17:32;23.20;99.90
582;DHT22;277;50.074;8.436;2023-07-29T11:20:01;23.20;99.90
582;DHT22;277;50.074;8.436;2023-07-29T11:22:29;23.70;99.90
582;DHT22;277;50.074;8.436;2023-07-29T11:25:01;24.30;99.90
582;DHT22;277;50.074;8.436;2023-07-29T11:27:29;25.10;99.90
582;DHT22;277;50.074;8.436;2023-07-29T11:29:57;25.80;99.90
582;DHT22;277;50.074;8.436;2023-07-29T11:32:25;26.20;99.90
582;DHT22;277;50.074;8.436;2023-07-29T11:34:53;26.60;99.90
582;DHT22;277;50.074;8.436;2023-07-29T11:37:21;26.90;99.90
582;DHT22;277;50.074;8.436;2023-07-29T11:39:48;27.10;99.90
582;DHT22;277;50.074;8.436;2023-07-29T11:42:19;27.00;99.90
582;DHT22;277;50.074;8.436;2023-07-29T11:44:46;27.30;99.90
582;DHT22;277;50.074;8.436;2023-07-29T11:47:14;27.60;99.90
582;DHT22;277;50.074;8.436;2023-07-29T11:49:42;27.80;99.90
582;DHT22;277;50.074;8.436;2023-07-29T11:52:10;27.70;99.90
582;DHT22;277;50.074;8.436;2023-07-29T11:54:38;28.10;99.90
582;DHT22;277;50.074;8.436;2023-07-29T11:57:06;28.30;99.90
582;DHT22;277;50.074;8.436;2023-07-29T11:59:37;28.90;99.90
582;DHT22;277;50.074;8.436;2023-07-29T12:02:05;28.80;99.90
582;DHT22;277;50.074;8.436;2023-07-29T12:04:35;28.60;99.90
582;DHT22;277;50.074;8.436;2023-07-29T12:07:03;28.10;99.90
582;DHT22;277;50.074;8.436;2023-07-29T12:09:31;27.70;99.90
582;DHT22;277;50.074;8.436;2023-07-29T12:12:00;27.30;99.90
582;DHT22;277;50.074;8.436;2023-07-29T12:14:28;27.00;99.90
582;DHT22;277;50.074;8.436;2023-07-29T12:16:59;26.70;99.90
582;DHT22;277;50.074;8.436;2023-07-29T12:19:31;26.30;99.90
582;DHT22;277;50.074;8.436;2023-07-29T12:21:59;26.20;99.90
582;DHT22;277;50.074;8.436;2023-07-29T12:24:26;26.70;99.90
582;DHT22;277;50.074;8.436;2023-07-29T12:26:54;27.10;99.90
582;DHT22;277;50.074;8.436;2023-07-29T12:29:22;27.50;99.90
582;DHT22;277;50.074;8.436;2023-07-29T12:31:57;28.00;99.90
582;DHT22;277;50.074;8.436;2023-07-29T12:34:26;28.30;99.90
582;DHT22;277;50.074;8.436;2023-07-29T12:36:54;28.60;99.90
582;DHT22;277;50.074;8.436;2023-07-29T12:39:25;28.80;99.90
582;DHT22;277;50.074;8.436;2023-07-29T12:41:54;29.10;99.90
582;DHT22;277;50.074;8.436;2023-07-29T12:44:22;29.40;99.90
582;DHT22;277;50.074;8.436;2023-07-29T12:46:50;29.10;99.90
582;DHT22;277;50.074;8.436;2023-07-29T12:49:19;28.70;99.90
582;DHT22;277;50.074;8.436;2023-07-29T12:51:48;28.10;99.90
582;DHT22;277;50.074;8.436;2023-07-29T12:54:16;27.70;99.90
582;DHT22;277;50.074;8.436;2023-07-29T12:56:46;27.30;99.90
582;DHT22;277;50.074;8.436;2023-07-29T12:59:13;27.00;99.90
582;DHT22;277;50.074;8.436;2023-07-29T13:01:41;26.60;99.90
582;DHT22;277;50.074;8.436;2023-07-29T13:04:09;26.40;99.90
582;DHT22;277;50.074;8.436;2023-07-29T13:06:38;26.20;99.90
582;DHT22;277;50.074;8.436;2023-07-29T13:09:06;26.00;99.90
582;DHT22;277;50.074;8.436;2023-07-29T13:11:34;26.00;99.90
582;DHT22;277;50.074;8.436;2023-07-29T13:14:02;25.80;99.90
582;DHT22;277;50.074;8.436;2023-07-29T13:16:30;25.90;99.90
582;DHT22;277;50.074;8.436;2023-07-29T13:18:58;25.90;99.90
582;DHT22;277;50.074;8.436;2023-07-29T13:21:26;26.30;99.90
582;DHT22;277;50.074;8.436;2023-07-29T13:23:55;26.40;99.90
582;DHT22;277;50.074;8.436;2023-07-29T13:26:23;26.40;99.90
582;DHT22;277;50.074;8.436;2023-07-29T13:28:51;26.30;99.90
582;DHT22;277;50.074;8.436;2023-07-29T13:31:18;26.20;99.90
582;DHT22;277;50.074;8.436;2023-07-29T13:33:46;26.00;99.90
582;DHT22;277;50.074;8.436;2023-07-29T13:36:14;25.80;99.90
582;DHT22;277;50.074;8.436;2023-07-29T13:38:42;25.70;99.90
582;DHT22;277;50.074;8.436;2023-07-29T13:41:11;25.90;99.90
582;DHT22;277;50.074;8.436;2023-07-29T13:43:39;26.40;99.90
582;DHT22;277;50.074;8.436;2023-07-29T13:46:06;27.10;99.90
582;DHT22;277;50.074;8.436;2023-07-29T13:48:34;27.60;99.90
582;DHT22;277;50.074;8.436;2023-07-29T13:51:02;28.20;99.90
582;DHT22;277;50.074;8.436;2023-07-29T13:53:30;28.80;99.90
582;DHT22;277;50.074;8.436;2023-07-29T13:55:58;29.40;99.90
582;DHT22;277;50.074;8.436;2023-07-29T13:58:27;29.70;99.90
582;DHT22;277;50.074;8.436;2023-07-29T14:00:54;29.80;99.90
582;DHT22;277;50.074;8.436;2023-07-29T14:03:25;30.10;99.90
582;DHT22;277;50.074;8.436;2023-07-29T14:05:53;30.50;99.90
582;DHT22;277;50.074;8.436;2023-07-29T14:08:21;30.20;99.90
582;DHT22;277;50.074;8.436;2023-07-29T14:10:50;29.90;99.90
582;DHT22;277;50.074;8.436;2023-07-29T14:13:17;29.50;99.90
582;DHT22;277;50.074;8.436;2023-07-29T14:15:46;29.30;99.90
582;DHT22;277;50.074;8.436;2023-07-29T14:18:14;29.20;99.90
582;DHT22;277;50.074;8.436;2023-07-29T14:20:42;29.20;99.90
582;DHT22;277;50.074;8.436;2023-07-29T14:23:10;29.30;99.90
582;DHT22;277;50.074;8.436;2023-07-29T14:25:38;29.60;99.90
582;DHT22;277;50.074;8.436;2023-07-29T14:28:05;30.10;99.90
582;DHT22;277;50.074;8.436;2023-07-29T14:30:33;30.40;99.80
582;DHT22;277;50.074;8.436;2023-07-29T14:33:03;30.60;98.70
582;DHT22;277;50.074;8.436;2023-07-29T14:35:31;30.40;98.70
582;DHT22;277;50.074;8.436;2023-07-29T14:37:59;30.50;99.50
582;DHT22;277;50.074;8.436;2023-07-29T14:40:27;30.70;98.30
582;DHT22;277;50.074;8.436;2023-07-29T14:42:54;30.70;97.80
582;DHT22;277;50.074;8.436;2023-07-29T14:45:22;30.80;98.00
582;DHT22;277;50.074;8.436;2023-07-29T14:47:50;30.70;96.60
582;DHT22;277;50.074;8.436;2023-07-29T14:50:19;30.30;96.80
582;DHT22;277;50.074;8.436;2023-07-29T14:52:47;30.00;97.90
582;DHT22;277;50.074;8.436;2023-07-29T14:55:15;29.70;97.30
582;DHT22;277;50.074;8.436;2023-07-29T14:57:43;29.70;97.50
582;DHT22;277;50.074;8.436;2023-07-29T15:00:11;29.60;97.20
582;DHT22;277;50.074;8.436;2023-07-29T15:02:40;29.80;96.80
582;DHT22;277;50.074;8.436;2023-07-29T15:05:08;30.10;97.40
582;DHT22;277;50.074;8.436;2023-07-29T15:07:37;30.40;97.00
582;DHT22;277;50.074;8.436;2023-07-29T15:10:05;30.60;96.80
582;DHT22;277;50.074;8.436;2023-07-29T15:12:33;30.60;96.10
582;DHT22;277;50.074;8.436;2023-07-29T15:15:01;30.80;95.30
582;DHT22;277;50.074;8.436;2023-07-29T15:17:30;30.80;95.40
582;DHT22;277;50.074;8.436;2023-07-29T15:19:57;30.80;95.50
582;DHT22;277;50.074;8.436;2023-07-29T15:22:25;30.80;95.20
582;DHT22;277;50.074;8.436;2023-07-29T15:24:54;30.70;95.40
582;DHT22;277;50.074;8.436;2023-07-29T15:27:22;30.60;95.60
582;DHT22;277;50.074;8.436;2023-07-29T15:29:50;30.30;94.90
582;DHT22;277;50.074;8.436;2023-07-29T15:32:18;30.30;95.10
582;DHT22;277;50.074;8.436;2023-07-29T15:34:46;30.20;95.00
582;DHT22;277;50.074;8.436;2023-07-29T15:37:13;29.70;95.50
582;DHT22;277;50.074;8.436;2023-07-29T15:39:41;29.20;95.40
582;DHT22;277;50.074;8.436;2023-07-29T15:42:10;28.80;96.50
582;DHT22;277;50.074;8.436;2023-07-29T15:44:38;28.30;96.40
582;DHT22;277;50.074;8.436;2023-07-29T15:47:06;28.40;97.70
582;DHT22;277;50.074;8.436;2023-07-29T15:49:34;28.30;99.40
582;DHT22;277;50.074;8.436;2023-07-29T15:52:02;28.10;97.70
582;DHT22;277;50.074;8.436;2023-07-29T15:54:29;27.80;97.80
582;DHT22;277;50.074;8.436;2023-07-29T15:56:57;27.80;97.40
582;DHT22;277;50.074;8.436;2023-07-29T15:59:26;28.00;97.40
582;DHT22;277;50.074;8.436;2023-07-29T16:01:54;28.00;98.50
582;DHT22;277;50.074;8.436;2023-07-29T16:04:22;27.80;98.00
582;DHT22;277;50.074;8.436;2023-07-29T16:06:50;27.60;98.10
582;DHT22;277;50.074;8.436;2023-07-29T16:09:19;27.40;98.30
582;DHT22;277;50.074;8.436;2023-07-29T16:11:47;27.30;97.60
582;DHT22;277;50.074;8.436;2023-07-29T16:14:15;27.10;98.10
582;DHT22;277;50.074;8.436;2023-07-29T16:16:44;27.10;98.10
582;DHT22;277;50.074;8.436;2023-07-29T16:19:12;27.10;98.20
582;DHT22;277;50.074;8.436;2023-07-29T16:21:40;27.10;98.20
582;DHT22;277;50.074;8.436;2023-07-29T16:24:08;27.00;98.10
582;DHT22;277;50.074;8.436;2023-07-29T16:26:36;27.00;98.70
582;DHT22;277;50.074;8.436;2023-07-29T16:29:04;26.90;98.30
582;DHT22;277;50.074;8.436;2023-07-29T16:31:33;26.80;98.80
582;DHT22;277;50.074;8.436;2023-07-29T16:34:02;26.80;99.40
582;DHT22;277;50.074;8.436;2023-07-29T16:36:30;26.70;99.60
582;DHT22;277;50.074;8.436;2023-07-29T16:38:58;26.70;99.90
582;DHT22;277;50.074;8.436;2023-07-29T16:41:26;26.80;99.50